Time,TemperatureF,DewpointF,PressureIn,WindDirection,WindDirectionDegrees,WindSpeedMPH,WindSpeedGustMPH,Humidity,HourlyPrecipIn,Conditions,Clouds,dailyrainin,SoftwareType,DateUTC
2013-02-02 00:01:00,42.6,32.0,30.20,WSW,255,0.0,0.0,66,0.00,CLR,,0.00,WeatherDisplay:10.37,2013-02-02 06:01:00,
2013-02-02 00:06:00,42.6,32.0,30.17,WSW,255,0.0,0.0,66,0.00,CLR,,0.00,WeatherDisplay:10.37,2013-02-02 06:06:00,
2013-02-02 00:11:00,42.4,31.9,30.17,WSW,255,0.0,0.0,66,0.00,CLR,,0.00,WeatherDisplay:10.37,2013-02-02 06:11:00,
2013-02-02 00:16:00,42.4,31.9,30.17,WSW,255,0.0,0.0,66,0.00,CLR,,0.00,WeatherDisplay:10.37,2013-02-02 06:16:00,
2013-02-02 00:21:00,42.4,32.3,30.17,WSW,255,0.0,0.0,67,0.00,CLR,,0.00,WeatherDisplay:10.37,2013-02-02 06:21:00,
2013-02-02 00:26:00,42.3,32.1,30.17,WSW,255,0.0,0.0,67,0.00,CLR,,0.00,WeatherDisplay:10.37,2013-02-02 06:26:00,
2013-02-02 00:31:00,42.1,31.9,30.17,WSW,255,0.0,0.0,67,0.00,CLR,,0.00,WeatherDisplay:10.37,2013-02-02 06:31:00,
2013-02-02 00:36:00,42.3,32.4,30.17,WSW,255,3.5,3.5,68,0.00,CLR,,0.00,WeatherDisplay:10.37,2013-02-02 06:36:00,
2013-02-02 00:41:00,43.0,33.1,30.17,WSW,255,3.6,3.6,68,0.00,CLR,,0.00,WeatherDisplay:10.37,2013-02-02 06:41:00,
2013-02-02 00:46:00,43.3,33.8,30.17,WSW,239,3.6,3.6,69,0.00,CLR,,0.00,WeatherDisplay:10.37,2013-02-02 06:46:00,
2013-02-02 00:51:00,43.7,34.6,30.17,SW,233,4.9,4.9,70,0.00,CLR,,0.00,WeatherDisplay:10.37,2013-02-02 06:51:00,
2013-02-02 00:56:00,43.7,34.6,30.17,WSW,239,4.0,4.0,70,0.00,CLR,,0.00,WeatherDisplay:10.37,2013-02-02 06:56:00,
2013-02-02 01:01:00,43.7,34.6,30.17,SW,223,3.6,3.6,70,0.00,CLR,,0.00,WeatherDisplay:10.37,2013-02-02 07:01:00,
2013-02-02 01:06:00,43.7,34.6,30.17,WSW,237,3.5,3.6,70,0.00,CLR,,0.00,WeatherDisplay:10.37,2013-02-02 07:06:00,
2013-02-02 01:11:00,43.9,35.1,30.17,SW,235,4.6,4.6,71,0.00,CLR,,0.00,WeatherDisplay:10.37,2013-02-02 07:11:00,
2013-02-02 01:16:00,44.1,35.3,30.17,WSW,241,4.9,4.9,71,0.00,CLR,,0.00,WeatherDisplay:10.37,2013-02-02 07:16:00,
2013-02-02 01:21:00,44.4,35.6,30.17,WSW,238,5.8,5.8,71,0.00,CLR,,0.00,WeatherDisplay:10.37,2013-02-02 07:21:00,
2013-02-02 01:26:00,44.6,35.8,30.17,WSW,253,5.8,5.8,71,0.00,CLR,,0.00,WeatherDisplay:10.37,2013-02-02 07:26:00,
2013-02-02 01:31:00,45.1,36.3,30.17,WSW,246,5.8,5.8,71,0.00,CLR,,0.00,WeatherDisplay:10.37,2013-02-02 07:31:00,
2013-02-02 01:36:00,45.1,36.3,30.17,WSW,257,5.8,5.8,71,0.00,CLR,,0.00,WeatherDisplay:10.37,2013-02-02 07:36:00,
2013-02-02 01:41:00,45.1,36.3,30.17,SSW,207,5.8,5.8,71,0.00,CLR,,0.00,WeatherDisplay:10.37,2013-02-02 07:41:00,
2013-02-02 01:46:00,45.1,35.9,30.17,WSW,239,5.8,5.8,70,0.00,CLR,,0.00,WeatherDisplay:10.37,2013-02-02 07:46:00,
2013-02-02 01:51:00,45.3,36.5,30.15,West,271,6.9,6.9,71,0.00,CLR,,0.00,WeatherDisplay:10.37,2013-02-02 07:51:00,
2013-02-02 01:56:00,45.5,36.6,30.15,West,265,6.9,6.9,71,0.00,CLR,,0.00,WeatherDisplay:10.37,2013-02-02 07:56:00,
2013-02-02 02:01:00,45.5,36.6,30.15,WSW,247,7.2,7.2,71,0.00,CLR,,0.00,WeatherDisplay:10.37,2013-02-02 08:01:00,
2013-02-02 02:06:00,45.5,36.3,30.17,West,265,5.8,5.8,70,0.00,CLR,,0.00,WeatherDisplay:10.37,2013-02-02 08:06:00,
2013-02-02 02:11:00,45.9,37.0,30.17,WSW,251,8.1,8.1,71,0.00,CLR,,0.00,WeatherDisplay:10.37,2013-02-02 08:11:00,
2013-02-02 02:16:00,46.0,36.8,30.17,SW,230,6.9,6.9,70,0.00,CLR,,0.00,WeatherDisplay:10.37,2013-02-02 08:16:00,
2013-02-02 02:21:00,46.0,36.8,30.17,WSW,241,5.8,5.8,70,0.00,CLR,,0.00,WeatherDisplay:10.37,2013-02-02 08:21:00,
2013-02-02 02:26:00,46.0,36.8,30.17,SW,219,5.8,5.8,70,0.00,CLR,,0.00,WeatherDisplay:10.37,2013-02-02 08:26:00,
2013-02-02 02:31:00,46.0,36.8,30.17,SW,225,5.8,5.8,70,0.00,CLR,,0.00,WeatherDisplay:10.37,2013-02-02 08:31:00,
2013-02-02 02:37:00,46.0,36.8,30.17,SSW,202,5.8,5.8,70,0.00,CLR,,0.00,WeatherDisplay:10.37,2013-02-02 08:37:00,
2013-02-02 02:42:00,46.0,36.8,30.17,SW,224,5.8,5.8,70,0.00,CLR,,0.00,WeatherDisplay:10.37,2013-02-02 08:42:00,
2013-02-02 02:47:00,45.9,36.6,30.17,SW,218,5.8,5.8,70,0.00,CLR,,0.00,WeatherDisplay:10.37,2013-02-02 08:47:00,
2013-02-02 02:52:00,45.9,36.6,30.17,SW,219,6.9,6.9,70,0.00,CLR,,0.00,WeatherDisplay:10.37,2013-02-02 08:52:00,
2013-02-02 02:57:00,45.9,36.6,30.17,SSW,208,6.9,6.9,70,0.00,CLR,,0.00,WeatherDisplay:10.37,2013-02-02 08:57:00,
2013-02-02 03:02:00,45.9,36.6,30.17,SSW,202,5.8,5.8,70,0.00,CLR,,0.00,WeatherDisplay:10.37,2013-02-02 09:02:00,
2013-02-02 03:07:00,45.7,36.5,30.17,SSW,211,5.8,5.8,70,0.00,CLR,,0.00,WeatherDisplay:10.37,2013-02-02 09:07:00,
2013-02-02 03:12:00,45.9,36.6,30.17,SW,227,5.8,5.8,70,0.00,CLR,,0.00,WeatherDisplay:10.37,2013-02-02 09:12:00,
2013-02-02 03:17:00,46.0,36.8,30.17,SSW,207,5.8,5.8,70,0.00,CLR,,0.00,WeatherDisplay:10.37,2013-02-02 09:17:00,
2013-02-02 03:22:00,46.0,36.8,30.15,SW,232,3.5,3.5,70,0.00,CLR,,0.00,WeatherDisplay:10.37,2013-02-02 09:22:00,
2013-02-02 03:27:00,46.0,36.8,30.15,SSW,206,5.8,5.8,70,0.00,CLR,,0.00,WeatherDisplay:10.37,2013-02-02 09:27:00,
2013-02-02 03:32:00,46.0,36.8,30.15,WSW,248,5.8,5.8,70,0.00,CLR,,0.00,WeatherDisplay:10.37,2013-02-02 09:32:00,
2013-02-02 03:37:00,46.2,37.0,30.17,SSW,206,3.5,3.6,70,0.00,CLR,,0.00,WeatherDisplay:10.37,2013-02-02 09:37:00,
2013-02-02 03:42:00,46.2,37.0,30.17,SSW,210,5.8,5.8,70,0.00,CLR,,0.00,WeatherDisplay:10.37,2013-02-02 09:42:00,
2013-02-02 03:47:00,46.2,37.0,30.17,SSW,199,5.8,5.8,70,0.00,CLR,,0.00,WeatherDisplay:10.37,2013-02-02 09:47:00,
2013-02-02 03:52:00,46.0,37.2,30.15,SSW,206,5.8,5.8,71,0.00,CLR,,0.00,WeatherDisplay:10.37,2013-02-02 09:52:00,
2013-02-02 03:57:00,46.0,37.2,30.15,SSW,202,3.5,4.9,71,0.00,CLR,,0.00,WeatherDisplay:10.37,2013-02-02 09:57:00,
2013-02-02 04:02:00,46.0,37.2,30.15,SW,224,5.8,5.8,71,0.00,CLR,,0.00,WeatherDisplay:10.37,2013-02-02 10:02:00,
2013-02-02 04:07:00,45.9,37.0,30.15,SW,225,5.8,5.8,71,0.00,CLR,,0.00,WeatherDisplay:10.37,2013-02-02 10:07:00,
2013-02-02 04:12:00,45.9,37.0,30.15,South,188,3.5,3.5,71,0.00,CLR,,0.00,WeatherDisplay:10.37,2013-02-02 10:12:00,
2013-02-02 04:17:00,45.7,36.8,30.15,SSW,196,3.5,3.6,71,0.00,CLR,,0.00,WeatherDisplay:10.37,2013-02-02 10:17:00,
2013-02-02 04:22:00,45.5,36.6,30.15,SSW,203,4.9,4.9,71,0.00,CLR,,0.00,WeatherDisplay:10.37,2013-02-02 10:22:00,
2013-02-02 04:27:00,45.3,36.5,30.15,South,186,5.8,5.8,71,0.00,CLR,,0.00,WeatherDisplay:10.37,2013-02-02 10:27:00,
2013-02-02 04:32:00,45.3,36.8,30.15,SW,224,5.8,5.8,72,0.00,CLR,,0.00,WeatherDisplay:10.37,2013-02-02 10:32:00,
2013-02-02 04:37:00,45.0,36.5,30.17,SSW,206,5.8,5.8,72,0.00,CLR,,0.00,WeatherDisplay:10.37,2013-02-02 10:37:00,
2013-02-02 04:42:00,44.8,36.7,30.17,SW,227,4.0,4.0,73,0.00,CLR,,0.00,WeatherDisplay:10.37,2013-02-02 10:42:00,
2013-02-02 04:47:00,44.8,36.7,30.17,SSW,200,4.6,4.6,73,0.00,CLR,,0.00,WeatherDisplay:10.37,2013-02-02 10:47:00,
2013-02-02 04:52:00,44.4,36.3,30.17,SW,222,3.5,3.5,73,0.00,CLR,,0.00,WeatherDisplay:10.37,2013-02-02 10:52:00,
2013-02-02 04:57:00,44.4,36.6,30.17,SW,223,4.6,4.6,74,0.00,CLR,,0.00,WeatherDisplay:10.37,2013-02-02 10:57:00,
2013-02-02 05:02:00,44.4,36.6,30.17,WSW,238,3.6,4.0,74,0.00,CLR,,0.00,WeatherDisplay:10.37,2013-02-02 11:02:00,
2013-02-02 05:07:00,44.2,36.8,30.17,SSW,205,3.5,3.5,75,0.00,CLR,,0.00,WeatherDisplay:10.37,2013-02-02 11:07:00,
2013-02-02 05:12:00,44.2,36.8,30.17,SSW,200,3.5,3.5,75,0.00,CLR,,0.00,WeatherDisplay:10.37,2013-02-02 11:12:00,
2013-02-02 05:17:00,44.4,37.0,30.17,SSW,201,3.5,4.0,75,0.00,CLR,,0.00,WeatherDisplay:10.37,2013-02-02 11:17:00,
2013-02-02 05:22:00,44.2,36.8,30.17,WSW,240,4.6,4.6,75,0.00,CLR,,0.00,WeatherDisplay:10.37,2013-02-02 11:22:00,
2013-02-02 05:27:00,44.1,36.6,30.17,SSW,204,3.5,3.6,75,0.00,CLR,,0.00,WeatherDisplay:10.37,2013-02-02 11:27:00,
2013-02-02 05:32:00,44.2,37.2,30.17,SW,220,5.8,5.8,76,0.00,CLR,,0.00,WeatherDisplay:10.37,2013-02-02 11:32:00,
2013-02-02 05:37:00,44.1,37.0,30.17,SSW,210,4.6,4.6,76,0.00,CLR,,0.00,WeatherDisplay:10.37,2013-02-02 11:37:00,
2013-02-02 05:42:00,44.1,37.0,30.17,WSW,250,6.3,6.3,76,0.00,CLR,,0.00,WeatherDisplay:10.37,2013-02-02 11:42:00,
2013-02-02 05:47:00,43.7,36.6,30.17,SW,227,5.8,5.8,76,0.00,CLR,,0.00,WeatherDisplay:10.37,2013-02-02 11:47:00,
2013-02-02 05:52:00,43.9,37.1,30.17,SSW,203,4.6,4.6,77,0.00,CLR,,0.00,WeatherDisplay:10.37,2013-02-02 11:52:00,
2013-02-02 05:57:00,43.9,37.1,30.17,SSW,212,4.6,4.6,77,0.00,CLR,,0.00,WeatherDisplay:10.37,2013-02-02 11:57:00,
2013-02-02 06:02:00,44.1,37.3,30.17,SSW,208,5.8,5.8,77,0.00,CLR,,0.00,WeatherDisplay:10.37,2013-02-02 12:02:00,
2013-02-02 06:07:00,43.9,37.1,30.17,SSW,210,3.5,3.6,77,0.00,CLR,,0.00,WeatherDisplay:10.37,2013-02-02 12:07:00,
2013-02-02 06:12:00,43.9,37.5,30.17,SW,234,3.5,3.6,78,0.00,CLR,,0.00,WeatherDisplay:10.37,2013-02-02 12:12:00,
2013-02-02 06:17:00,43.9,37.5,30.17,SSW,194,4.6,4.6,78,0.00,CLR,,0.00,WeatherDisplay:10.37,2013-02-02 12:17:00,
2013-02-02 06:22:00,43.7,37.3,30.17,SSW,204,3.6,3.6,78,0.00,CLR,,0.00,WeatherDisplay:10.37,2013-02-02 12:22:00,
2013-02-02 06:27:00,43.9,37.8,30.17,SSW,206,3.5,3.5,79,0.00,CLR,,0.00,WeatherDisplay:10.37,2013-02-02 12:27:00,
2013-02-02 06:32:00,43.9,37.8,30.17,South,176,3.5,3.5,79,0.00,CLR,,0.00,WeatherDisplay:10.37,2013-02-02 12:32:00,
2013-02-02 06:37:00,44.1,38.0,30.17,South,187,3.5,3.5,79,0.00,CLR,,0.00,WeatherDisplay:10.37,2013-02-02 12:37:00,
2013-02-02 06:42:00,44.1,38.0,30.17,South,187,5.8,5.8,79,0.00,CLR,,0.00,WeatherDisplay:10.37,2013-02-02 12:42:00,
2013-02-02 06:47:00,44.1,38.0,30.17,South,176,4.6,4.6,79,0.00,CLR,,0.00,WeatherDisplay:10.37,2013-02-02 12:47:00,
2013-02-02 06:52:00,44.2,38.5,30.17,SW,222,4.6,4.6,80,0.00,CLR,,0.00,WeatherDisplay:10.37,2013-02-02 12:52:00,
2013-02-02 06:57:00,44.2,38.5,30.17,WSW,257,5.4,5.4,80,0.00,CLR,,0.00,WeatherDisplay:10.37,2013-02-02 12:57:00,
2013-02-02 07:02:00,44.2,38.5,30.17,South,178,5.8,5.8,80,0.00,CLR,,0.00,WeatherDisplay:10.37,2013-02-02 13:02:00,
2013-02-02 07:07:00,44.4,38.6,30.20,WSW,241,3.5,3.6,80,0.00,CLR,,0.00,WeatherDisplay:10.37,2013-02-02 13:07:00,
2013-02-02 07:12:00,44.4,38.6,30.20,West,270,5.8,5.8,80,0.00,CLR,,0.00,WeatherDisplay:10.37,2013-02-02 13:12:00,
2013-02-02 07:17:00,44.6,38.8,30.20,WSW,239,3.5,3.5,80,0.00,CLR,,0.00,WeatherDisplay:10.37,2013-02-02 13:17:00,
2013-02-02 07:22:00,44.6,38.5,30.20,West,265,5.8,5.8,79,0.00,CLR,,0.00,WeatherDisplay:10.37,2013-02-02 13:22:00,
2013-02-02 07:27:00,44.4,38.6,30.20,West,261,3.5,0.0,80,0.00,CLR,,0.00,WeatherDisplay:10.37,2013-02-02 13:27:00,
2013-02-02 07:32:00,44.2,38.5,30.20,West,264,3.1,3.1,80,0.00,CLR,,0.00,WeatherDisplay:10.37,2013-02-02 13:32:00,
2013-02-02 07:37:00,44.2,38.5,30.20,SW,229,3.5,3.5,80,0.00,CLR,,0.00,WeatherDisplay:10.37,2013-02-02 13:37:00,
2013-02-02 07:43:00,44.6,38.8,30.20,SSW,194,3.5,3.5,80,0.00,CLR,,0.00,WeatherDisplay:10.37,2013-02-02 13:43:00,
2013-02-02 07:48:00,44.8,39.0,30.20,SW,231,3.5,3.5,80,0.00,CLR,,0.00,WeatherDisplay:10.37,2013-02-02 13:48:00,
2013-02-02 07:53:00,45.0,39.2,30.20,SSW,196,5.8,5.8,80,0.00,CLR,,0.00,WeatherDisplay:10.37,2013-02-02 13:53:00,
2013-02-02 07:58:00,45.3,39.5,30.20,SSW,211,5.8,5.8,80,0.00,CLR,,0.00,WeatherDisplay:10.37,2013-02-02 13:58:00,
2013-02-02 08:03:00,45.5,39.7,30.20,SW,224,3.5,3.5,80,0.00,CLR,,0.00,WeatherDisplay:10.37,2013-02-02 14:03:00,
2013-02-02 08:08:00,45.7,39.9,30.20,South,189,6.9,6.9,80,0.00,CLR,,0.00,WeatherDisplay:10.37,2013-02-02 14:08:00,
2013-02-02 08:13:00,46.0,40.2,30.20,SW,222,3.5,3.5,80,0.00,CLR,,0.00,WeatherDisplay:10.37,2013-02-02 14:13:00,
2013-02-02 08:18:00,46.2,40.4,30.20,SW,232,5.8,5.8,80,0.00,CLR,,0.00,WeatherDisplay:10.37,2013-02-02 14:18:00,
2013-02-02 08:23:00,46.6,40.4,30.20,South,186,5.8,5.8,79,0.00,CLR,,0.00,WeatherDisplay:10.37,2013-02-02 14:23:00,
2013-02-02 08:28:00,46.9,40.8,30.20,South,186,3.5,3.5,79,0.00,CLR,,0.00,WeatherDisplay:10.37,2013-02-02 14:28:00,
2013-02-02 08:33:00,47.3,41.1,30.20,South,184,4.6,4.6,79,0.00,CLR,,0.00,WeatherDisplay:10.37,2013-02-02 14:33:00,
2013-02-02 08:38:00,47.5,41.3,30.20,WSW,249,5.8,5.8,79,0.00,CLR,,0.00,WeatherDisplay:10.37,2013-02-02 14:38:00,
2013-02-02 08:43:00,48.0,41.8,30.20,WSW,244,5.8,5.8,79,0.00,CLR,,0.00,WeatherDisplay:10.37,2013-02-02 14:43:00,
2013-02-02 08:48:00,48.4,41.8,30.20,WSW,253,5.8,5.8,78,0.00,CLR,,0.00,WeatherDisplay:10.37,2013-02-02 14:48:00,
2013-02-02 08:53:00,48.9,42.4,30.23,SW,236,5.8,5.8,78,0.00,CLR,,0.00,WeatherDisplay:10.37,2013-02-02 14:53:00,
2013-02-02 08:58:00,49.5,42.9,30.23,SSW,210,5.8,5.8,78,0.00,CLR,,0.00,WeatherDisplay:10.37,2013-02-02 14:58:00,
2013-02-02 09:03:00,49.8,42.9,30.23,West,260,3.5,3.5,77,0.00,CLR,,0.00,WeatherDisplay:10.37,2013-02-02 15:03:00,
2013-02-02 09:08:00,50.5,43.3,30.20,SW,227,4.6,4.6,76,0.00,CLR,,0.00,WeatherDisplay:10.37,2013-02-02 15:08:00,
2013-02-02 09:13:00,50.9,43.6,30.20,SW,235,8.1,8.1,76,0.00,CLR,,0.00,WeatherDisplay:10.37,2013-02-02 15:13:00,
2013-02-02 09:18:00,51.3,43.6,30.20,WSW,252,4.6,4.6,75,0.00,CLR,,0.00,WeatherDisplay:10.37,2013-02-02 15:18:00,
2013-02-02 09:23:00,51.6,43.6,30.23,West,259,8.1,8.1,74,0.00,CLR,,0.00,WeatherDisplay:10.37,2013-02-02 15:23:00,
2013-02-02 09:28:00,52.0,43.9,30.23,West,265,6.9,6.9,74,0.00,CLR,,0.00,WeatherDisplay:10.37,2013-02-02 15:28:00,
2013-02-02 09:33:00,52.3,43.9,30.23,WSW,237,3.5,3.6,73,0.00,CLR,,0.00,WeatherDisplay:10.37,2013-02-02 15:33:00,
2013-02-02 09:38:00,52.7,44.3,30.23,WSW,240,5.8,5.8,73,0.00,CLR,,0.00,WeatherDisplay:10.37,2013-02-02 15:38:00,
2013-02-02 09:43:00,53.1,44.6,30.23,West,270,3.5,4.0,73,0.00,CLR,,0.00,WeatherDisplay:10.37,2013-02-02 15:43:00,
2013-02-02 09:48:00,53.6,44.8,30.23,SW,220,3.5,3.5,72,0.00,CLR,,0.00,WeatherDisplay:10.37,2013-02-02 15:48:00,
2013-02-02 09:53:00,54.0,45.1,30.26,West,261,5.8,5.8,72,0.00,CLR,,0.00,WeatherDisplay:10.37,2013-02-02 15:53:00,
2013-02-02 09:58:00,54.5,45.3,30.26,West,264,5.8,5.8,71,0.00,CLR,,0.00,WeatherDisplay:10.37,2013-02-02 15:58:00,
2013-02-02 10:03:00,54.9,45.3,30.26,SSW,194,5.8,5.8,70,0.00,CLR,,0.00,WeatherDisplay:10.37,2013-02-02 16:03:00,
2013-02-02 10:08:00,55.2,45.2,30.26,SSW,213,5.8,5.8,69,0.00,CLR,,0.00,WeatherDisplay:10.37,2013-02-02 16:08:00,
2013-02-02 10:13:00,55.4,45.0,30.26,West,261,5.8,5.8,68,0.00,CLR,,0.00,WeatherDisplay:10.37,2013-02-02 16:13:00,
2013-02-02 10:18:00,55.6,44.8,30.26,SW,224,3.5,3.5,67,0.00,CLR,,0.00,WeatherDisplay:10.37,2013-02-02 16:18:00,
2013-02-02 10:23:00,55.8,45.0,30.26,SSW,198,3.5,3.5,67,0.00,CLR,,0.00,WeatherDisplay:10.37,2013-02-02 16:23:00,
2013-02-02 10:28:00,55.9,44.7,30.26,SW,235,2.7,2.7,66,0.00,CLR,,0.00,WeatherDisplay:10.37,2013-02-02 16:28:00,
2013-02-02 10:33:00,55.9,44.3,30.26,WSW,244,3.5,3.5,65,0.00,CLR,,0.00,WeatherDisplay:10.37,2013-02-02 16:33:00,
2013-02-02 10:38:00,55.9,44.3,30.26,ESE,111,3.5,3.5,65,0.00,CLR,,0.00,WeatherDisplay:10.37,2013-02-02 16:38:00,
2013-02-02 10:43:00,56.3,44.3,30.26,SW,222,3.6,3.6,64,0.00,CLR,,0.00,WeatherDisplay:10.37,2013-02-02 16:43:00,
2013-02-02 10:48:00,56.3,43.9,30.26,SSW,205,2.3,0.0,63,0.00,CLR,,0.00,WeatherDisplay:10.37,2013-02-02 16:48:00,
2013-02-02 10:53:00,56.7,44.2,30.26,SSW,209,4.6,4.6,63,0.00,CLR,,0.00,WeatherDisplay:10.37,2013-02-02 16:53:00,
2013-02-02 10:58:00,57.2,43.9,30.26,SE,139,3.5,0.0,61,0.00,CLR,,0.00,WeatherDisplay:10.37,2013-02-02 16:58:00,
2013-02-02 11:03:00,57.7,44.4,30.26,SW,221,3.5,0.0,61,0.00,CLR,,0.00,WeatherDisplay:10.37,2013-02-02 17:03:00,
2013-02-02 11:08:00,58.1,43.8,30.26,NNE,26,3.6,3.6,59,0.00,CLR,,0.00,WeatherDisplay:10.37,2013-02-02 17:08:00,
2013-02-02 11:13:00,58.5,44.2,30.26,SW,216,4.6,4.6,59,0.00,CLR,,0.00,WeatherDisplay:10.37,2013-02-02 17:13:00,
2013-02-02 11:18:00,58.6,43.0,30.26,South,189,3.5,3.5,56,0.00,CLR,,0.00,WeatherDisplay:10.37,2013-02-02 17:18:00,
2013-02-02 11:23:00,58.8,43.1,30.26,SSW,199,3.5,3.5,56,0.00,CLR,,0.00,WeatherDisplay:10.37,2013-02-02 17:23:00,
2013-02-02 11:28:00,58.8,42.7,30.26,SSW,199,3.5,3.5,55,0.00,CLR,,0.00,WeatherDisplay:10.37,2013-02-02 17:28:00,
2013-02-02 11:33:00,59.5,42.9,30.26,NE,42,2.3,0.0,54,0.00,CLR,,0.00,WeatherDisplay:10.37,2013-02-02 17:33:00,
2013-02-02 11:38:00,59.9,42.2,30.26,NNE,18,2.3,2.3,52,0.00,CLR,,0.00,WeatherDisplay:10.37,2013-02-02 17:38:00,
2013-02-02 11:43:00,60.1,41.9,30.26,NNE,18,2.3,2.3,51,0.00,CLR,,0.00,WeatherDisplay:10.37,2013-02-02 17:43:00,
2013-02-02 11:48:00,60.1,41.4,30.26,NNE,22,3.5,0.0,50,0.00,CLR,,0.00,WeatherDisplay:10.37,2013-02-02 17:48:00,
2013-02-02 11:53:00,60.3,41.5,30.26,North,357,2.3,0.0,50,0.00,CLR,,0.00,WeatherDisplay:10.37,2013-02-02 17:53:00,
2013-02-02 11:58:00,60.4,41.2,30.26,NE,46,5.8,5.8,49,0.00,CLR,,0.00,WeatherDisplay:10.37,2013-02-02 17:58:00,
2013-02-02 12:03:00,60.4,40.6,30.26,NE,38,3.5,3.5,48,0.00,CLR,,0.00,WeatherDisplay:10.37,2013-02-02 18:03:00,
2013-02-02 12:08:00,60.4,40.6,30.26,NE,48,3.5,0.0,48,0.00,CLR,,0.00,WeatherDisplay:10.37,2013-02-02 18:08:00,
2013-02-02 12:13:00,61.0,40.6,30.26,North,11,2.3,3.1,47,0.00,CLR,,0.00,WeatherDisplay:10.37,2013-02-02 18:13:00,
2013-02-02 12:18:00,61.0,40.0,30.26,NE,36,3.5,0.0,46,0.00,CLR,,0.00,WeatherDisplay:10.37,2013-02-02 18:18:00,
2013-02-02 12:23:00,61.2,40.2,30.26,North,357,3.5,3.5,46,0.00,CLR,,0.00,WeatherDisplay:10.37,2013-02-02 18:23:00,
2013-02-02 12:28:00,61.3,40.4,30.26,ENE,70,3.5,0.0,46,0.00,CLR,,0.00,WeatherDisplay:10.37,2013-02-02 18:28:00,
2013-02-02 12:34:00,61.3,39.8,30.26,North,5,3.5,3.5,45,0.00,CLR,,0.00,WeatherDisplay:10.37,2013-02-02 18:34:00,
2013-02-02 12:39:00,61.3,39.2,30.26,NNE,18,8.1,8.1,44,0.00,CLR,,0.00,WeatherDisplay:10.37,2013-02-02 18:39:00,
2013-02-02 12:44:00,61.2,39.6,30.26,NNW,342,4.6,4.6,45,0.00,CLR,,0.00,WeatherDisplay:10.37,2013-02-02 18:44:00,
2013-02-02 12:49:00,61.3,39.2,30.26,North,357,5.8,5.8,44,0.00,CLR,,0.00,WeatherDisplay:10.37,2013-02-02 18:49:00,
2013-02-02 12:54:00,61.2,38.5,30.23,North,8,3.5,3.5,43,0.00,CLR,,0.00,WeatherDisplay:10.37,2013-02-02 18:54:00,
2013-02-02 12:59:00,61.3,39.2,30.23,North,357,3.5,0.0,44,0.00,CLR,,0.00,WeatherDisplay:10.37,2013-02-02 18:59:00,
2013-02-02 13:04:00,61.0,38.3,30.23,North,2,3.5,0.0,43,0.00,CLR,,0.00,WeatherDisplay:10.37,2013-02-02 19:04:00,
2013-02-02 13:09:00,61.2,38.5,30.23,NE,41,3.5,3.5,43,0.00,CLR,,0.00,WeatherDisplay:10.37,2013-02-02 19:09:00,
2013-02-02 13:14:00,61.5,37.0,30.23,North,0,8.1,8.1,40,0.00,CLR,,0.00,WeatherDisplay:10.37,2013-02-02 19:14:00,
2013-02-02 13:19:00,61.3,36.2,30.23,NNW,348,3.5,3.5,39,0.00,CLR,,0.00,WeatherDisplay:10.37,2013-02-02 19:19:00,
2013-02-02 13:24:00,61.7,35.1,30.23,North,353,8.1,8.1,37,0.00,CLR,,0.00,WeatherDisplay:10.37,2013-02-02 19:24:00,
2013-02-02 13:29:00,61.5,35.7,30.23,North,0,5.8,5.8,38,0.00,CLR,,0.00,WeatherDisplay:10.37,2013-02-02 19:29:00,
2013-02-02 13:34:00,61.5,35.0,30.23,North,0,5.8,5.8,37,0.00,CLR,,0.00,WeatherDisplay:10.37,2013-02-02 19:34:00,
2013-02-02 13:39:00,61.5,35.0,30.23,NNE,14,2.3,0.0,37,0.00,CLR,,0.00,WeatherDisplay:10.37,2013-02-02 19:39:00,
2013-02-02 13:44:00,61.9,33.9,30.23,NNW,330,8.1,8.1,35,0.00,CLR,,0.00,WeatherDisplay:10.37,2013-02-02 19:44:00,
2013-02-02 13:49:00,61.7,34.5,30.23,North,0,5.8,5.8,36,0.00,CLR,,0.00,WeatherDisplay:10.37,2013-02-02 19:49:00,
2013-02-02 13:54:00,62.2,34.9,30.23,NNE,20,3.6,0.0,36,0.00,CLR,,0.00,WeatherDisplay:10.37,2013-02-02 19:54:00,
2013-02-02 13:59:00,62.4,34.4,30.23,North,5,5.8,0.0,35,0.00,CLR,,0.00,WeatherDisplay:10.37,2013-02-02 19:59:00,
2013-02-02 14:04:00,62.4,34.4,30.23,NNE,29,4.6,4.6,35,0.00,CLR,,0.00,WeatherDisplay:10.37,2013-02-02 20:04:00,
2013-02-02 14:09:00,63.0,34.1,30.23,NNE,22,5.8,5.8,34,0.00,CLR,,0.00,WeatherDisplay:10.37,2013-02-02 20:09:00,
2013-02-02 14:14:00,63.0,34.1,30.23,North,10,5.8,5.8,34,0.00,CLR,,0.00,WeatherDisplay:10.37,2013-02-02 20:14:00,
2013-02-02 14:19:00,63.0,33.4,30.23,North,357,5.8,5.8,33,0.00,CLR,,0.00,WeatherDisplay:10.37,2013-02-02 20:19:00,
2013-02-02 14:24:00,63.0,33.4,30.23,North,353,4.6,4.6,33,0.00,CLR,,0.00,WeatherDisplay:10.37,2013-02-02 20:24:00,
2013-02-02 14:29:00,63.1,30.3,30.23,North,0,5.8,5.8,29,0.00,CLR,,0.00,WeatherDisplay:10.37,2013-02-02 20:29:00,
2013-02-02 14:34:00,63.5,29.8,30.23,North,11,6.3,6.3,28,0.00,CLR,,0.00,WeatherDisplay:10.37,2013-02-02 20:34:00,
2013-02-02 14:39:00,63.3,29.6,30.23,North,0,6.3,6.3,28,0.00,CLR,,0.00,WeatherDisplay:10.37,2013-02-02 20:39:00,
2013-02-02 14:44:00,63.5,29.8,30.23,North,353,5.8,5.8,28,0.00,CLR,,0.00,WeatherDisplay:10.37,2013-02-02 20:44:00,
2013-02-02 14:49:00,63.7,29.0,30.23,North,357,5.8,5.8,27,0.00,CLR,,0.00,WeatherDisplay:10.37,2013-02-02 20:49:00,
2013-02-02 14:54:00,63.5,28.9,30.23,North,0,5.8,5.8,27,0.00,CLR,,0.00,WeatherDisplay:10.37,2013-02-02 20:54:00,
2013-02-02 14:59:00,63.3,29.6,30.23,North,353,5.8,5.8,28,0.00,CLR,,0.00,WeatherDisplay:10.37,2013-02-02 20:59:00,
2013-02-02 15:04:00,63.7,28.1,30.23,NNW,339,5.8,5.8,26,0.00,CLR,,0.00,WeatherDisplay:10.37,2013-02-02 21:04:00,
2013-02-02 15:09:00,64.2,26.6,30.23,NNW,337,5.8,5.8,24,0.00,CLR,,0.00,WeatherDisplay:10.37,2013-02-02 21:09:00,
2013-02-02 15:14:00,64.2,26.6,30.23,North,3,5.8,5.8,24,0.00,CLR,,0.00,WeatherDisplay:10.37,2013-02-02 21:14:00,
2013-02-02 15:19:00,64.0,8.4,30.23,North,0,8.1,8.1,11,0.00,CLR,,0.00,WeatherDisplay:10.37,2013-02-02 21:19:00,
2013-02-02 15:24:00,64.0,-4.7,30.23,North,357,8.1,8.1,6,0.00,CLR,,0.00,WeatherDisplay:10.37,2013-02-02 21:24:00,
2013-02-02 15:29:00,64.0,23.3,30.23,NNE,30,3.5,0.0,21,0.00,CLR,,0.00,WeatherDisplay:10.37,2013-02-02 21:29:00,
2013-02-02 15:34:00,64.2,12.3,30.23,North,0,5.8,5.8,13,0.00,CLR,,0.00,WeatherDisplay:10.37,2013-02-02 21:34:00,
2013-02-02 15:39:00,64.0,16.9,30.23,NNW,342,5.8,5.8,16,0.00,CLR,,0.00,WeatherDisplay:10.37,2013-02-02 21:39:00,
2013-02-02 15:44:00,63.9,12.0,30.23,North,357,5.8,5.8,13,0.00,CLR,,0.00,WeatherDisplay:10.37,2013-02-02 21:44:00,
2013-02-02 15:49:00,64.0,1.4,30.23,North,0,5.8,5.8,8,0.00,CLR,,0.00,WeatherDisplay:10.37,2013-02-02 21:49:00,
2013-02-02 15:54:00,63.9,8.2,30.23,NNE,33,5.8,5.8,11,0.00,CLR,,0.00,WeatherDisplay:10.37,2013-02-02 21:54:00,
2013-02-02 15:59:00,63.9,8.2,30.23,NNE,16,3.5,4.5,11,0.00,CLR,,0.00,WeatherDisplay:10.37,2013-02-02 21:59:00,
2013-02-02 16:04:00,63.7,11.8,30.23,North,353,5.8,5.8,13,0.00,CLR,,0.00,WeatherDisplay:10.37,2013-02-02 22:04:00,
2013-02-02 16:09:00,64.0,-4.7,30.26,North,10,8.1,8.1,6,0.00,CLR,,0.00,WeatherDisplay:10.37,2013-02-02 22:09:00,
2013-02-02 16:14:00,63.9,8.2,30.26,North,10,3.5,3.5,11,0.00,CLR,,0.00,WeatherDisplay:10.37,2013-02-02 22:14:00,
2013-02-02 16:19:00,63.9,12.0,30.26,NE,44,4.6,4.6,13,0.00,CLR,,0.00,WeatherDisplay:10.37,2013-02-02 22:19:00,
2013-02-02 16:24:00,63.9,-8.6,30.26,NNW,337,5.8,5.8,5,0.00,CLR,,0.00,WeatherDisplay:10.37,2013-02-02 22:24:00,
2013-02-02 16:29:00,63.9,1.3,30.26,North,357,3.5,3.5,8,0.00,CLR,,0.00,WeatherDisplay:10.37,2013-02-02 22:29:00,
2013-02-02 16:34:00,63.9,-4.8,30.26,North,357,5.8,5.8,6,0.00,CLR,,0.00,WeatherDisplay:10.37,2013-02-02 22:34:00,
2013-02-02 16:39:00,63.7,8.1,30.26,North,7,3.5,3.5,11,0.00,CLR,,0.00,WeatherDisplay:10.37,2013-02-02 22:39:00,
2013-02-02 16:44:00,63.3,0.9,30.26,NNW,345,5.8,5.8,8,0.00,CLR,,0.00,WeatherDisplay:10.37,2013-02-02 22:44:00,
2013-02-02 16:49:00,63.1,7.7,30.26,North,0,4.6,0.0,11,0.00,CLR,,0.00,WeatherDisplay:10.37,2013-02-02 22:49:00,
2013-02-02 16:54:00,63.0,7.5,30.26,North,0,3.5,3.5,11,0.00,CLR,,0.00,WeatherDisplay:10.37,2013-02-02 22:54:00,
2013-02-02 16:59:00,63.0,7.5,30.26,North,353,3.5,0.0,11,0.00,CLR,,0.00,WeatherDisplay:10.37,2013-02-02 22:59:00,
2013-02-02 17:04:00,62.6,7.3,30.26,North,0,3.5,3.5,11,0.00,CLR,,0.00,WeatherDisplay:10.37,2013-02-02 23:04:00,
2013-02-02 17:09:00,62.6,7.3,30.26,North,0,5.8,5.8,11,0.00,CLR,,0.00,WeatherDisplay:10.37,2013-02-02 23:09:00,
2013-02-02 17:14:00,62.6,11.0,30.26,North,353,5.8,5.8,13,0.00,CLR,,0.00,WeatherDisplay:10.37,2013-02-02 23:14:00,
2013-02-02 17:19:00,62.4,7.1,30.26,NNW,341,3.5,3.6,11,0.00,CLR,,0.00,WeatherDisplay:10.37,2013-02-02 23:19:00,
2013-02-02 17:24:00,61.9,19.1,30.26,North,353,3.5,0.0,19,0.00,CLR,,0.00,WeatherDisplay:10.37,2013-02-02 23:24:00,
2013-02-02 17:29:00,61.7,24.5,30.26,North,0,2.3,0.0,24,0.00,CLR,,0.00,WeatherDisplay:10.37,2013-02-02 23:29:00,
2013-02-02 17:34:00,61.2,24.0,30.26,North,0,0.0,0.0,24,0.00,CLR,,0.00,WeatherDisplay:10.37,2013-02-02 23:34:00,
2013-02-02 17:39:00,60.8,24.7,30.26,North,0,3.5,0.0,25,0.00,CLR,,0.00,WeatherDisplay:10.37,2013-02-02 23:39:00,
2013-02-02 17:44:00,60.4,25.4,30.26,North,0,0.0,0.0,26,0.00,CLR,,0.00,WeatherDisplay:10.37,2013-02-02 23:44:00,
2013-02-02 17:49:00,60.1,25.0,30.26,North,0,0.0,0.0,26,0.00,CLR,,0.00,WeatherDisplay:10.37,2013-02-02 23:49:00,
2013-02-02 17:54:00,59.7,25.6,30.26,North,0,0.0,0.0,27,0.00,CLR,,0.00,WeatherDisplay:10.37,2013-02-02 23:54:00,
2013-02-02 18:00:00,59.2,26.1,30.26,North,0,0.0,0.0,28,0.00,CLR,,0.00,WeatherDisplay:10.37,2013-02-03 00:00:00,
2013-02-02 18:05:00,58.8,26.6,30.26,North,0,0.0,0.0,29,0.00,CLR,,0.00,WeatherDisplay:10.37,2013-02-03 00:05:00,
2013-02-02 18:10:00,58.3,26.9,30.26,North,0,0.0,0.0,30,0.00,CLR,,0.00,WeatherDisplay:10.37,2013-02-03 00:10:00,
2013-02-02 18:15:00,57.9,27.4,30.26,North,0,0.0,0.0,31,0.00,CLR,,0.00,WeatherDisplay:10.37,2013-02-03 00:15:00,
2013-02-02 18:20:00,57.2,27.6,30.26,North,0,0.0,0.0,32,0.00,CLR,,0.00,WeatherDisplay:10.37,2013-02-03 00:20:00,
2013-02-02 18:25:00,56.7,28.6,30.26,North,0,0.0,0.0,34,0.00,CLR,,0.00,WeatherDisplay:10.37,2013-02-03 00:25:00,
2013-02-02 18:30:00,56.3,29.0,30.26,North,0,0.0,0.0,35,0.00,CLR,,0.00,WeatherDisplay:10.37,2013-02-03 00:30:00,
2013-02-02 18:35:00,56.0,28.7,30.26,North,0,0.0,0.0,35,0.00,CLR,,0.00,WeatherDisplay:10.37,2013-02-03 00:35:00,
2013-02-02 18:40:00,55.6,28.3,30.26,North,0,0.0,0.0,35,0.00,CLR,,0.00,WeatherDisplay:10.37,2013-02-03 00:40:00,
2013-02-02 18:45:00,55.2,28.7,30.26,North,0,0.0,0.0,36,0.00,CLR,,0.00,WeatherDisplay:10.37,2013-02-03 00:45:00,
2013-02-02 18:50:00,54.7,28.2,30.26,North,0,0.0,0.0,36,0.00,CLR,,0.00,WeatherDisplay:10.37,2013-02-03 00:50:00,
2013-02-02 18:55:00,54.1,28.4,30.29,North,0,0.0,0.0,37,0.00,CLR,,0.00,WeatherDisplay:10.37,2013-02-03 00:55:00,
2013-02-02 19:00:00,54.0,28.3,30.29,North,0,0.0,0.0,37,0.00,CLR,,0.00,WeatherDisplay:10.37,2013-02-03 01:00:00,
2013-02-02 19:05:00,53.4,27.8,30.29,North,0,0.0,0.0,37,0.00,CLR,,0.00,WeatherDisplay:10.37,2013-02-03 01:05:00,
2013-02-02 19:10:00,53.2,28.3,30.29,North,0,0.0,0.0,38,0.00,CLR,,0.00,WeatherDisplay:10.37,2013-02-03 01:10:00,
2013-02-02 19:15:00,53.1,28.1,30.29,North,0,0.0,0.0,38,0.00,CLR,,0.00,WeatherDisplay:10.37,2013-02-03 01:15:00,
2013-02-02 19:20:00,53.1,28.7,30.29,North,358,1.0,4.0,39,0.00,CLR,,0.00,WeatherDisplay:10.37,2013-02-03 01:20:00,
2013-02-02 19:25:00,52.7,28.4,30.29,North,349,0.0,0.0,39,0.00,CLR,,0.00,WeatherDisplay:10.37,2013-02-03 01:25:00,
2013-02-02 19:30:00,52.2,27.9,30.29,North,349,0.0,0.0,39,0.00,CLR,,0.00,WeatherDisplay:10.37,2013-02-03 01:30:00,
2013-02-02 19:35:00,51.8,27.6,30.29,North,349,0.0,0.0,39,0.00,CLR,,0.00,WeatherDisplay:10.37,2013-02-03 01:35:00,
2013-02-02 19:40:00,51.8,27.6,30.29,North,349,0.0,0.0,39,0.00,CLR,,0.00,WeatherDisplay:10.37,2013-02-03 01:40:00,
2013-02-02 19:45:00,51.6,28.1,30.29,North,349,0.0,0.0,40,0.00,CLR,,0.00,WeatherDisplay:10.37,2013-02-03 01:45:00,
2013-02-02 19:50:00,51.4,27.9,30.29,North,349,0.0,0.0,40,0.00,CLR,,0.00,WeatherDisplay:10.37,2013-02-03 01:50:00,
2013-02-02 19:55:00,51.1,28.2,30.29,North,349,0.0,0.0,41,0.00,CLR,,0.00,WeatherDisplay:10.37,2013-02-03 01:55:00,
2013-02-02 20:00:00,50.9,28.0,30.29,North,349,0.0,0.0,41,0.00,CLR,,0.00,WeatherDisplay:10.37,2013-02-03 02:00:00,
2013-02-02 20:05:00,50.7,28.4,30.29,North,349,0.0,0.0,42,0.00,CLR,,0.00,WeatherDisplay:10.37,2013-02-03 02:05:00,
2013-02-02 20:10:00,50.5,28.3,30.29,North,349,0.0,0.0,42,0.00,CLR,,0.00,WeatherDisplay:10.37,2013-02-03 02:10:00,
2013-02-02 20:15:00,50.4,28.1,30.29,North,349,0.0,0.0,42,0.00,CLR,,0.00,WeatherDisplay:10.37,2013-02-03 02:15:00,
2013-02-02 20:20:00,50.2,28.5,30.29,North,349,0.0,0.0,43,0.00,CLR,,0.00,WeatherDisplay:10.37,2013-02-03 02:20:00,
2013-02-02 20:25:00,50.0,28.4,30.29,North,349,0.0,0.0,43,0.00,CLR,,0.00,WeatherDisplay:10.37,2013-02-03 02:25:00,
2013-02-02 20:30:00,49.6,28.6,30.29,North,349,0.0,0.0,44,0.00,CLR,,0.00,WeatherDisplay:10.37,2013-02-03 02:30:00,
2013-02-02 20:35:00,49.3,28.3,30.29,North,349,0.0,0.0,44,0.00,CLR,,0.00,WeatherDisplay:10.37,2013-02-03 02:35:00,
2013-02-02 20:40:00,49.1,28.7,30.29,North,349,0.0,0.0,45,0.00,CLR,,0.00,WeatherDisplay:10.37,2013-02-03 02:40:00,
2013-02-02 20:45:00,49.1,28.7,30.29,North,349,0.0,0.0,45,0.00,CLR,,0.00,WeatherDisplay:10.37,2013-02-03 02:45:00,
2013-02-02 20:50:00,48.9,28.5,30.32,North,349,0.0,0.0,45,0.00,CLR,,0.00,WeatherDisplay:10.37,2013-02-03 02:50:00,
2013-02-02 20:55:00,48.6,28.7,30.32,North,349,0.0,0.0,46,0.00,CLR,,0.00,WeatherDisplay:10.37,2013-02-03 02:55:00,
2013-02-02 21:00:00,48.4,28.5,30.32,North,349,0.0,0.0,46,0.00,CLR,,0.00,WeatherDisplay:10.37,2013-02-03 03:00:00,
2013-02-02 21:05:00,48.4,28.5,30.32,North,349,0.0,0.0,46,0.00,CLR,,0.00,WeatherDisplay:10.37,2013-02-03 03:05:00,
2013-02-02 21:10:00,48.4,29.1,30.32,North,349,0.0,0.0,47,0.00,CLR,,0.00,WeatherDisplay:10.37,2013-02-03 03:10:00,
2013-02-02 21:15:00,48.4,29.1,30.32,North,349,0.0,0.0,47,0.00,CLR,,0.00,WeatherDisplay:10.37,2013-02-03 03:15:00,
2013-02-02 21:20:00,48.0,28.7,30.32,North,349,0.0,0.0,47,0.00,CLR,,0.00,WeatherDisplay:10.37,2013-02-03 03:20:00,
2013-02-02 21:25:00,48.0,28.7,30.32,North,349,0.0,0.0,47,0.00,CLR,,0.00,WeatherDisplay:10.37,2013-02-03 03:25:00,
2013-02-02 21:30:00,47.8,28.6,30.32,North,349,0.0,0.0,47,0.00,CLR,,0.00,WeatherDisplay:10.37,2013-02-03 03:30:00,
2013-02-02 21:35:00,47.5,28.3,30.32,North,349,0.0,0.0,47,0.00,CLR,,0.00,WeatherDisplay:10.37,2013-02-03 03:35:00,
2013-02-02 21:40:00,47.5,28.7,30.32,North,349,0.0,0.0,48,0.00,CLR,,0.00,WeatherDisplay:10.37,2013-02-03 03:40:00,
2013-02-02 21:45:00,47.7,28.9,30.32,North,349,0.0,0.0,48,0.00,CLR,,0.00,WeatherDisplay:10.37,2013-02-03 03:45:00,
2013-02-02 21:50:00,47.5,28.7,30.32,North,349,0.0,0.0,48,0.00,CLR,,0.00,WeatherDisplay:10.37,2013-02-03 03:50:00,
2013-02-02 21:55:00,46.9,28.3,30.32,North,350,0.0,0.0,48,0.00,CLR,,0.00,WeatherDisplay:10.37,2013-02-03 03:55:00,
2013-02-02 22:00:00,46.8,28.1,30.32,North,350,0.0,0.0,48,0.00,CLR,,0.00,WeatherDisplay:10.37,2013-02-03 04:00:00,
2013-02-02 22:05:00,46.4,28.3,30.32,North,350,0.0,0.0,49,0.00,CLR,,0.00,WeatherDisplay:10.37,2013-02-03 04:05:00,
2013-02-02 22:10:00,46.4,28.3,30.32,North,349,0.0,0.0,49,0.00,CLR,,0.00,WeatherDisplay:10.37,2013-02-03 04:10:00,
2013-02-02 22:15:00,46.8,29.1,30.32,North,349,0.0,0.0,50,0.00,CLR,,0.00,WeatherDisplay:10.37,2013-02-03 04:15:00,
2013-02-02 22:20:00,46.9,28.8,30.32,North,349,0.0,0.0,49,0.00,CLR,,0.00,WeatherDisplay:10.37,2013-02-03 04:20:00,
2013-02-02 22:25:00,46.9,28.7,30.32,North,349,0.0,0.0,49,0.00,CLR,,0.00,WeatherDisplay:10.37,2013-02-03 04:25:00,
2013-02-02 22:30:00,46.7,28.5,30.32,North,349,0.0,0.0,49,0.00,CLR,,0.00,WeatherDisplay:10.37,2013-02-03 04:30:00,
2013-02-02 22:35:00,46.0,28.4,30.32,North,349,0.0,0.0,50,0.00,CLR,,0.00,WeatherDisplay:10.37,2013-02-03 04:35:00,
2013-02-02 22:40:00,45.9,28.7,30.32,North,349,0.0,0.0,51,0.00,CLR,,0.00,WeatherDisplay:10.37,2013-02-03 04:40:00,
2013-02-02 22:45:00,45.5,28.4,30.32,North,349,0.0,0.0,51,0.00,CLR,,0.00,WeatherDisplay:10.37,2013-02-03 04:45:00,
2013-02-02 22:50:00,45.1,28.5,30.32,North,349,0.0,0.0,52,0.00,CLR,,0.00,WeatherDisplay:10.37,2013-02-03 04:50:00,
2013-02-02 22:55:00,44.6,28.0,30.32,North,349,0.0,0.0,52,0.00,CLR,,0.00,WeatherDisplay:10.37,2013-02-03 04:55:00,
2013-02-02 23:00:00,44.6,28.5,30.32,North,349,0.0,0.0,53,0.00,CLR,,0.00,WeatherDisplay:10.37,2013-02-03 05:00:00,
2013-02-02 23:01:00,44.4,28.3,30.32,North,349,0.0,0.0,53,0.00,CLR,,0.00,WeatherDisplay:10.37,2013-02-03 05:01:00,
2013-02-02 23:03:00,44.4,28.8,30.32,North,349,0.0,0.0,54,0.00,CLR,,0.00,WeatherDisplay:10.37,2013-02-03 05:03:00,
2013-02-02 23:08:00,44.1,28.5,30.32,North,349,0.0,0.0,54,0.00,CLR,,0.00,WeatherDisplay:10.37,2013-02-03 05:08:00,
2013-02-02 23:13:00,44.1,28.9,30.32,North,349,0.0,0.0,55,0.00,CLR,,0.00,WeatherDisplay:10.37,2013-02-03 05:13:00,
2013-02-02 23:18:00,43.9,29.2,30.32,North,349,0.0,0.0,56,0.00,CLR,,0.00,WeatherDisplay:10.37,2013-02-03 05:18:00,
2013-02-02 23:23:00,43.9,29.2,30.32,North,349,0.0,0.0,56,0.00,CLR,,0.00,WeatherDisplay:10.37,2013-02-03 05:23:00,
2013-02-02 23:28:00,43.7,29.5,30.32,North,349,0.0,0.0,57,0.00,CLR,,0.00,WeatherDisplay:10.37,2013-02-03 05:28:00,
2013-02-02 23:33:00,43.7,29.5,30.32,North,349,0.0,0.0,57,0.00,CLR,,0.00,WeatherDisplay:10.37,2013-02-03 05:33:00,
2013-02-02 23:38:00,43.7,29.5,30.32,North,349,0.0,0.0,57,0.00,CLR,,0.00,WeatherDisplay:10.37,2013-02-03 05:38:00,
2013-02-02 23:43:00,43.9,29.6,30.32,North,349,0.0,0.0,57,0.00,CLR,,0.00,WeatherDisplay:10.37,2013-02-03 05:43:00,
2013-02-02 23:48:00,44.1,29.8,30.32,North,349,0.0,0.0,57,0.00,CLR,,0.00,WeatherDisplay:10.37,2013-02-03 05:48:00,
2013-02-02 23:53:00,44.2,30.0,30.32,North,349,0.0,0.0,57,0.00,CLR,,0.00,WeatherDisplay:10.37,2013-02-03 05:53:00,
2013-02-02 23:58:00,44.2,29.5,30.32,North,349,0.0,0.0,56,0.00,CLR,,0.00,WeatherDisplay:10.37,2013-02-03 05:58:00,